createdAt,value
2022-12-01T00:01:20.145Z,27.60
2022-12-01T00:03:47.258Z,28.03
2022-12-01T00:06:16.705Z,28.70
2022-12-01T00:09:03.388Z,26.73
2022-12-01T00:11:30.431Z,26.80
2022-12-01T00:13:57.280Z,26.70
2022-12-01T00:16:24.318Z,26.73
2022-12-01T00:18:52.747Z,25.77
2022-12-01T00:21:21.958Z,25.47
2022-12-01T00:23:51.432Z,25.33
2022-12-01T00:26:19.628Z,26.10
2022-12-01T00:28:54.253Z,27.43
2022-12-01T00:31:21.661Z,26.67
2022-12-01T00:33:48.456Z,25.00
2022-12-01T00:36:15.784Z,26.50
2022-12-01T00:38:42.622Z,26.30
2022-12-01T00:41:09.665Z,25.13
2022-12-01T00:43:36.609Z,25.20
2022-12-01T00:46:03.881Z,25.37
2022-12-01T00:48:30.698Z,27.33
2022-12-01T00:50:57.402Z,24.40
2022-12-01T00:53:24.681Z,24.70
2022-12-01T00:55:52.229Z,24.33
2022-12-01T00:58:19.050Z,25.03
2022-12-01T01:00:45.782Z,24.33
2022-12-01T01:03:12.742Z,23.87
2022-12-01T01:05:40.764Z,24.00
2022-12-01T01:08:09.221Z,24.33
2022-12-01T01:10:40.408Z,25.73
2022-12-01T01:13:07.403Z,26.30
2022-12-01T01:15:34.190Z,24.63
2022-12-01T01:18:01.634Z,24.97
2022-12-01T01:20:29.167Z,25.93
2022-12-01T01:22:55.999Z,25.27
2022-12-01T01:25:22.889Z,26.03
2022-12-01T01:27:50.110Z,25.73
2022-12-01T01:30:17.661Z,26.63
2022-12-01T01:32:44.459Z,25.63
2022-12-01T01:35:11.142Z,25.73
2022-12-01T01:37:37.843Z,26.83
2022-12-01T01:40:05.239Z,25.67
2022-12-01T01:42:31.916Z,26.07
2022-12-01T01:44:59.240Z,26.83
2022-12-01T01:47:35.947Z,26.97
2022-12-01T01:50:09.506Z,26.97
2022-12-01T01:52:44.898Z,28.00
2022-12-01T01:55:13.064Z,26.80
2022-12-01T01:57:40.262Z,27.97
2022-12-01T02:00:11.832Z,25.57
2022-12-01T02:02:43.694Z,27.73
2022-12-01T02:05:16.861Z,26.37
2022-12-01T02:07:45.889Z,26.20
2022-12-01T02:10:14.539Z,26.90
2022-12-01T02:13:08.779Z,25.97
2022-12-01T02:15:49.473Z,25.20
2022-12-01T02:18:19.058Z,25.87
2022-12-01T02:21:29.050Z,25.43
2022-12-01T02:24:20.380Z,24.37
2022-12-01T02:27:02.927Z,25.23
2022-12-01T02:29:38.706Z,24.73
2022-12-01T02:32:29.762Z,24.90
2022-12-01T02:35:12.813Z,24.60
2022-12-01T02:37:54.290Z,24.63
2022-12-01T02:40:28.483Z,24.33
2022-12-01T02:43:22.984Z,24.60
2022-12-01T02:46:05.791Z,25.50
2022-12-01T02:48:38.469Z,25.63
2022-12-01T02:51:14.360Z,24.73
2022-12-01T02:53:41.370Z,25.63
2022-12-01T02:56:11.876Z,24.63
2022-12-01T02:58:38.680Z,24.63
2022-12-01T03:01:33.229Z,24.47
2022-12-01T03:04:05.705Z,22.73
2022-12-01T03:06:51.560Z,24.33
2022-12-01T03:09:29.253Z,24.80
2022-12-01T03:12:12.631Z,24.37
2022-12-01T03:14:42.293Z,24.30
2022-12-01T03:17:18.968Z,24.03
2022-12-01T03:19:53.586Z,23.73
2022-12-01T03:22:33.600Z,23.60
2022-12-01T03:25:03.743Z,24.40
2022-12-01T03:27:35.392Z,23.83
2022-12-01T03:30:04.478Z,24.03
2022-12-01T03:32:43.649Z,24.17
2022-12-01T03:35:50.759Z,23.37
2022-12-01T03:38:29.296Z,23.17
2022-12-01T03:41:01.049Z,22.87
2022-12-01T03:43:35.204Z,23.00
2022-12-01T03:46:29.806Z,22.37
2022-12-01T03:48:56.595Z,22.57
2022-12-01T03:51:44.077Z,22.07
2022-12-01T03:54:19.408Z,23.00
2022-12-01T03:56:55.096Z,24.03
2022-12-01T03:59:23.932Z,21.87
2022-12-01T04:01:51.236Z,23.40
2022-12-01T04:04:17.950Z,23.37
2022-12-01T04:06:48.799Z,23.00
2022-12-01T04:09:15.497Z,23.03
2022-12-01T04:12:00.686Z,22.03
2022-12-01T04:14:27.376Z,22.87
2022-12-01T04:16:54.053Z,23.07
2022-12-01T04:19:20.817Z,22.47
2022-12-01T04:21:47.671Z,22.87
2022-12-01T04:24:14.386Z,21.53
2022-12-01T04:26:42.126Z,20.63
2022-12-01T04:29:10.685Z,23.93
2022-12-01T04:31:37.915Z,21.53
2022-12-01T04:34:05.124Z,21.87
2022-12-01T04:36:33.807Z,21.93
2022-12-01T04:39:01.041Z,22.23
2022-12-01T04:41:28.069Z,22.43
2022-12-01T04:43:55.463Z,22.50
2022-12-01T04:46:23.839Z,21.87
2022-12-01T04:48:51.387Z,22.37
2022-12-01T04:51:18.648Z,21.27
2022-12-01T04:53:45.453Z,22.10
2022-12-01T04:56:12.216Z,22.33
2022-12-01T04:58:39.554Z,22.03
2022-12-01T05:01:10.126Z,22.63
2022-12-01T05:03:38.627Z,22.87
2022-12-01T05:06:16.168Z,21.37
2022-12-01T05:08:43.139Z,22.03
2022-12-01T05:11:12.246Z,22.30
2022-12-01T05:13:40.264Z,21.90
2022-12-01T05:16:09.649Z,22.20
2022-12-01T05:18:36.576Z,21.93
2022-12-01T05:21:05.361Z,22.97
2022-12-01T05:23:34.426Z,22.70
2022-12-01T05:26:02.824Z,23.17
2022-12-01T05:28:29.671Z,22.20
2022-12-01T05:30:56.770Z,21.57
2022-12-01T05:33:24.939Z,22.07
2022-12-01T05:35:52.147Z,22.10
2022-12-01T05:38:19.730Z,22.83
2022-12-01T05:40:54.441Z,23.97
2022-12-01T05:43:28.373Z,21.77
2022-12-01T05:45:56.577Z,22.90
2022-12-01T05:48:23.679Z,23.60
2022-12-01T05:50:50.354Z,22.37
2022-12-01T05:53:17.821Z,22.30
2022-12-01T05:55:44.768Z,23.80
2022-12-01T05:58:12.090Z,22.70
2022-12-01T06:00:45.426Z,21.43
2022-12-01T06:03:13.419Z,22.80
2022-12-01T06:05:40.435Z,22.63
2022-12-01T06:08:07.781Z,22.50
2022-12-01T06:10:34.651Z,23.00
2022-12-01T06:13:01.404Z,22.00
2022-12-01T06:15:28.064Z,22.40
2022-12-01T06:17:54.777Z,20.97
2022-12-01T06:20:21.480Z,22.33
2022-12-01T06:22:48.638Z,22.97
2022-12-01T06:25:15.418Z,22.73
2022-12-01T06:27:42.113Z,23.07
2022-12-01T06:30:09.508Z,22.20
2022-12-01T06:32:36.468Z,20.77
2022-12-01T06:35:03.444Z,21.53
2022-12-01T06:37:30.119Z,22.47
2022-12-01T06:39:56.852Z,22.67
2022-12-01T06:42:23.595Z,21.77
2022-12-01T06:44:50.392Z,23.90
2022-12-01T06:47:17.134Z,21.60
2022-12-01T06:49:44.043Z,21.73
2022-12-01T06:52:10.815Z,21.93
2022-12-01T06:54:37.638Z,21.40
2022-12-01T06:57:04.636Z,21.13
2022-12-01T06:59:31.733Z,21.87
2022-12-01T07:01:58.951Z,22.70
2022-12-01T07:04:25.749Z,23.37
2022-12-01T07:06:52.450Z,22.10
2022-12-01T07:09:19.262Z,22.10
2022-12-01T07:11:45.986Z,22.40
2022-12-01T07:14:22.893Z,23.20
2022-12-01T07:16:49.682Z,24.13
2022-12-01T07:19:16.462Z,23.47
2022-12-01T07:21:43.157Z,22.27
2022-12-01T07:24:10.202Z,23.03
2022-12-01T07:26:36.901Z,22.53
2022-12-01T07:29:03.945Z,21.37
2022-12-01T07:31:30.810Z,23.97
2022-12-01T07:33:57.672Z,23.77
2022-12-01T07:36:24.684Z,22.67
2022-12-01T07:38:51.434Z,24.03
2022-12-01T07:41:19.424Z,22.10
2022-12-01T07:43:47.046Z,21.67
2022-12-01T07:46:23.573Z,22.43
2022-12-01T07:48:52.102Z,23.70
2022-12-01T07:51:19.206Z,24.13
2022-12-01T07:53:47.356Z,22.03
2022-12-01T07:56:14.884Z,21.03
2022-12-01T07:58:42.262Z,21.27
2022-12-01T08:01:14.194Z,21.67
2022-12-01T08:03:41.516Z,20.80
2022-12-01T08:06:09.682Z,21.13
2022-12-01T08:08:39.164Z,20.60
2022-12-01T08:11:09.668Z,20.87
2022-12-01T08:13:36.400Z,20.80
2022-12-01T08:16:07.946Z,19.77
2022-12-01T08:18:35.812Z,19.60
2022-12-01T08:21:03.083Z,20.53
2022-12-01T08:23:29.962Z,20.97
2022-12-01T08:26:01.129Z,19.97
2022-12-01T08:28:28.185Z,20.83
2022-12-01T08:30:54.950Z,21.40
2022-12-01T08:33:21.772Z,20.33
2022-12-01T08:35:48.555Z,20.50
2022-12-01T08:38:15.813Z,20.13
2022-12-01T08:40:42.500Z,21.57
2022-12-01T08:43:15.251Z,20.53
2022-12-01T08:45:49.769Z,20.73
2022-12-01T08:48:16.412Z,20.50
2022-12-01T08:50:43.133Z,21.10
2022-12-01T08:53:10.036Z,21.43
2022-12-01T08:55:36.744Z,19.50
2022-12-01T08:58:03.489Z,22.07
2022-12-01T09:00:30.171Z,21.93
2022-12-01T09:02:56.924Z,22.83
2022-12-01T09:05:23.642Z,21.17
2022-12-01T09:08:10.361Z,20.53
2022-12-01T09:10:37.117Z,19.43
2022-12-01T09:13:03.802Z,20.80
2022-12-01T09:15:30.470Z,20.80
2022-12-01T09:17:57.253Z,21.13
2022-12-01T09:20:24.094Z,21.33
2022-12-01T09:22:50.779Z,20.80
2022-12-01T09:25:17.486Z,20.80
2022-12-01T09:27:44.159Z,21.67
2022-12-01T09:30:11.246Z,22.03
2022-12-01T09:32:37.971Z,21.70
2022-12-01T09:35:04.869Z,21.33
2022-12-01T09:37:31.661Z,20.73
2022-12-01T09:39:58.362Z,20.67
2022-12-01T09:42:32.266Z,21.87
2022-12-01T09:45:02.801Z,21.43
2022-12-01T09:47:32.271Z,20.27
2022-12-01T09:50:06.498Z,20.80
2022-12-01T09:52:45.583Z,20.30
2022-12-01T09:55:17.731Z,21.57
2022-12-01T09:57:48.522Z,21.97
2022-12-01T10:00:27.176Z,21.83
2022-12-01T10:03:09.780Z,21.10
2022-12-01T10:06:18.117Z,21.43
2022-12-01T10:08:34.895Z,22.60
2022-12-01T10:11:16.704Z,21.67
2022-12-01T10:13:43.884Z,19.87
2022-12-01T10:16:14.414Z,21.33
2022-12-01T10:19:06.447Z,20.50
2022-12-01T10:21:33.354Z,20.13
2022-12-01T10:24:08.922Z,20.17
2022-12-01T10:26:59.800Z,22.53
2022-12-01T10:29:58.694Z,23.40
2022-12-01T10:32:51.193Z,22.77
2022-12-01T10:35:23.580Z,22.50
2022-12-01T10:37:56.749Z,21.37
2022-12-01T10:40:24.087Z,22.27
2022-12-01T10:42:51.552Z,22.53
2022-12-01T10:45:30.269Z,24.00
2022-12-01T10:48:16.371Z,23.87
2022-12-01T10:50:46.309Z,23.53
2022-12-01T10:53:39.384Z,22.43
2022-12-01T10:56:20.572Z,22.40
2022-12-01T10:58:59.749Z,24.87
2022-12-01T11:01:30.973Z,24.60
2022-12-01T11:04:01.537Z,22.97
2022-12-01T11:06:30.506Z,21.23
2022-12-01T11:09:03.661Z,24.87
2022-12-01T11:11:40.364Z,23.57
2022-12-01T11:14:19.297Z,22.47
2022-12-01T11:16:49.351Z,22.70
2022-12-01T11:19:34.910Z,22.30
2022-12-01T11:22:18.675Z,21.80
2022-12-01T11:24:57.499Z,22.63
2022-12-01T11:27:26.868Z,23.03
2022-12-01T11:30:02.820Z,23.30
2022-12-01T11:32:32.396Z,24.33
2022-12-01T11:35:06.214Z,22.03
2022-12-01T11:37:38.991Z,22.33
2022-12-01T11:40:13.698Z,22.97
2022-12-01T11:42:41.398Z,23.30
2022-12-01T11:45:20.624Z,22.70
2022-12-01T11:48:00.329Z,22.13
2022-12-01T11:50:30.134Z,22.50
2022-12-01T11:52:56.955Z,25.13
2022-12-01T11:55:26.380Z,25.23
2022-12-01T11:57:55.928Z,24.10
2022-12-01T12:00:25.837Z,25.23
2022-12-01T12:03:12.542Z,25.20
2022-12-01T12:06:11.733Z,25.70
2022-12-01T12:09:11.267Z,23.83
2022-12-01T12:11:57.322Z,26.83
2022-12-01T12:14:42.158Z,25.83
2022-12-01T12:17:18.453Z,24.30
2022-12-01T12:20:08.655Z,24.73
2022-12-01T12:23:16.455Z,24.73
2022-12-01T12:26:08.622Z,25.17
2022-12-01T12:28:53.507Z,26.57
2022-12-01T12:31:44.312Z,24.40
2022-12-01T12:34:32.286Z,26.10
2022-12-01T12:37:24.559Z,27.30
2022-12-01T12:40:07.217Z,24.23
2022-12-01T12:42:46.562Z,25.27
2022-12-01T12:45:45.441Z,25.33
2022-12-01T12:48:18.302Z,23.60
2022-12-01T12:50:59.864Z,23.63
2022-12-01T12:53:34.699Z,25.80
2022-12-01T12:56:06.861Z,22.93
2022-12-01T12:58:49.478Z,24.43
2022-12-01T13:01:22.743Z,26.30
2022-12-01T13:04:01.006Z,24.47
2022-12-01T13:06:34.386Z,25.17
2022-12-01T13:09:13.891Z,24.90
2022-12-01T13:11:50.481Z,23.73
2022-12-01T13:14:29.069Z,23.47
2022-12-01T13:17:02.706Z,23.17
2022-12-01T13:19:35.183Z,22.57
2022-12-01T13:22:03.361Z,22.47
2022-12-01T13:24:31.341Z,22.90
2022-12-01T13:27:03.381Z,23.60
2022-12-01T13:29:37.501Z,24.77
2022-12-01T13:32:43.092Z,22.57
2022-12-01T13:35:27.658Z,24.17
2022-12-01T13:38:22.125Z,22.70
2022-12-01T13:40:49.703Z,23.37
2022-12-01T13:43:22.113Z,23.63
2022-12-01T13:45:49.934Z,22.97
2022-12-01T13:48:50.589Z,23.37
2022-12-01T13:51:17.421Z,24.30
2022-12-01T13:54:03.715Z,27.50
2022-12-01T13:56:45.510Z,25.23
2022-12-01T13:59:41.711Z,25.00
2022-12-01T14:02:19.128Z,24.03
2022-12-01T14:04:46.528Z,25.97
2022-12-01T14:07:34.073Z,23.87
2022-12-01T14:10:24.514Z,26.47
2022-12-01T14:12:52.461Z,24.93
2022-12-01T14:15:42.271Z,25.77
2022-12-01T14:18:18.347Z,25.00
2022-12-01T14:20:47.014Z,24.13
2022-12-01T14:23:33.869Z,25.60
2022-12-01T14:26:20.845Z,25.33
2022-12-01T14:29:28.879Z,24.67
2022-12-01T14:31:55.494Z,25.27
2022-12-01T14:34:27.000Z,26.47
2022-12-01T14:37:02.407Z,24.27
2022-12-01T14:39:33.748Z,24.20
2022-12-01T14:42:48.785Z,24.43
2022-12-01T14:45:20.590Z,23.93
2022-12-01T14:47:55.787Z,23.07
2022-12-01T14:50:57.900Z,23.57
2022-12-01T14:53:35.400Z,22.87
2022-12-01T14:56:16.285Z,23.53
2022-12-01T14:59:00.436Z,23.70
2022-12-01T15:01:36.917Z,24.73
2022-12-01T15:04:06.302Z,24.27
2022-12-01T15:06:35.262Z,23.13
2022-12-01T15:12:02.952Z,23.43
2022-12-01T15:14:38.721Z,23.60
2022-12-01T15:17:08.879Z,24.73
2022-12-01T15:19:39.293Z,23.47
2022-12-01T15:22:14.617Z,22.77
2022-12-01T15:24:42.378Z,25.30
2022-12-01T15:27:30.522Z,24.70
2022-12-01T15:30:03.307Z,23.23
2022-12-01T15:32:32.118Z,24.13
2022-12-01T15:35:04.539Z,24.70
2022-12-01T15:37:43.209Z,24.60
2022-12-01T15:43:15.342Z,22.87
2022-12-01T15:45:49.490Z,22.67
2022-12-01T15:48:24.592Z,24.20
2022-12-01T15:51:27.537Z,24.17
2022-12-01T15:54:01.047Z,25.20
2022-12-01T15:56:32.189Z,27.17
2022-12-01T15:59:14.255Z,24.10
2022-12-01T16:01:43.606Z,22.70
2022-12-01T16:04:28.624Z,23.30
2022-12-01T16:07:05.620Z,22.87
2022-12-01T16:09:41.088Z,21.53
2022-12-01T16:12:17.722Z,21.73
2022-12-01T16:14:52.323Z,21.33
2022-12-01T16:17:19.283Z,19.17
2022-12-01T16:19:46.237Z,18.80
2022-12-01T16:22:15.224Z,18.20
2022-12-01T16:24:53.863Z,17.97
2022-12-01T16:27:20.829Z,17.70
2022-12-01T16:29:52.912Z,19.63
2022-12-01T16:32:42.220Z,17.57
2022-12-01T16:35:21.236Z,18.63
2022-12-01T16:37:48.487Z,20.70
2022-12-01T16:40:16.798Z,20.10
2022-12-01T16:42:43.953Z,19.00
2022-12-01T16:45:15.177Z,19.03
2022-12-01T16:47:43.387Z,18.57
2022-12-01T16:50:15.457Z,16.83
2022-12-01T16:52:45.023Z,17.23
2022-12-01T16:55:31.904Z,17.97
2022-12-01T16:57:58.783Z,16.43
2022-12-01T17:00:26.068Z,15.70
2022-12-01T17:02:52.991Z,14.97
2022-12-01T17:05:19.912Z,13.10
2022-12-01T17:07:47.297Z,13.57
2022-12-01T17:10:14.262Z,13.27
2022-12-01T17:12:41.034Z,13.53
2022-12-01T17:15:08.505Z,13.30
2022-12-01T17:17:35.234Z,13.17
2022-12-01T17:20:02.865Z,13.23
2022-12-01T17:22:29.699Z,13.30
2022-12-01T17:24:56.646Z,12.30
2022-12-01T17:27:24.641Z,13.00
2022-12-01T17:29:51.530Z,12.67
2022-12-01T17:32:18.181Z,12.20
2022-12-01T17:34:45.158Z,11.77
2022-12-01T17:37:17.525Z,13.27
2022-12-01T17:39:47.484Z,14.67
2022-12-01T17:42:14.172Z,13.50
2022-12-01T17:44:40.857Z,13.83
2022-12-01T17:47:08.087Z,13.60
2022-12-01T17:49:36.633Z,14.57
2022-12-01T17:52:08.267Z,15.67
2022-12-01T17:54:35.018Z,16.40
2022-12-01T17:57:01.908Z,15.53
2022-12-01T17:59:28.861Z,17.00
2022-12-01T18:01:55.737Z,15.70
2022-12-01T18:04:25.582Z,15.70
2022-12-01T18:06:54.283Z,15.40
